sensor_id;sensor_type;location;lat;lon;timestamp;pressure;altitude;pressure_sealevel;temperature
20733;BMP180;10527;52.124;5.196;2023-04-25T00:00:15;100952.00;;;18.60
20733;BMP180;10527;52.124;5.196;2023-04-25T00:02:43;100968.00;;;18.60
20733;BMP180;10527;52.124;5.196;2023-04-25T00:05:11;100963.00;;;18.60
20733;BMP180;10527;52.124;5.196;2023-04-25T00:07:38;100961.00;;;18.50
20733;BMP180;10527;52.124;5.196;2023-04-25T00:10:08;100968.00;;;18.40
20733;BMP180;10527;52.124;5.196;2023-04-25T00:12:35;100963.00;;;18.30
20733;BMP180;10527;52.124;5.196;2023-04-25T00:15:02;100955.00;;;18.30
20733;BMP180;10527;52.124;5.196;2023-04-25T00:17:29;100958.00;;;18.20
20733;BMP180;10527;52.124;5.196;2023-04-25T00:19:57;100939.00;;;18.20
20733;BMP180;10527;52.124;5.196;2023-04-25T00:22:24;100955.00;;;18.20
20733;BMP180;10527;52.124;5.196;2023-04-25T00:24:51;100957.00;;;18.20
20733;BMP180;10527;52.124;5.196;2023-04-25T00:27:19;100959.00;;;18.20
20733;BMP180;10527;52.124;5.196;2023-04-25T00:29:46;100960.00;;;18.20
20733;BMP180;10527;52.124;5.196;2023-04-25T00:32:13;100966.00;;;18.20
20733;BMP180;10527;52.124;5.196;2023-04-25T00:34:40;100961.00;;;18.30
20733;BMP180;10527;52.124;5.196;2023-04-25T00:37:07;100962.00;;;18.30
20733;BMP180;10527;52.124;5.196;2023-04-25T00:39:35;100971.00;;;18.30
20733;BMP180;10527;52.124;5.196;2023-04-25T00:42:02;100972.00;;;18.30
20733;BMP180;10527;52.124;5.196;2023-04-25T00:44:31;100969.00;;;18.30
20733;BMP180;10527;52.124;5.196;2023-04-25T00:47:01;100963.00;;;18.30
20733;BMP180;10527;52.124;5.196;2023-04-25T00:49:28;100970.00;;;18.30
20733;BMP180;10527;52.124;5.196;2023-04-25T00:51:56;100973.00;;;18.30
20733;BMP180;10527;52.124;5.196;2023-04-25T00:54:23;100963.00;;;18.40
20733;BMP180;10527;52.124;5.196;2023-04-25T00:56:50;100959.00;;;18.40
20733;BMP180;10527;52.124;5.196;2023-04-25T00:59:19;100974.00;;;18.40
20733;BMP180;10527;52.124;5.196;2023-04-25T01:01:47;100966.00;;;18.40
20733;BMP180;10527;52.124;5.196;2023-04-25T01:04:14;100969.00;;;18.40
20733;BMP180;10527;52.124;5.196;2023-04-25T01:06:41;100970.00;;;18.40
20733;BMP180;10527;52.124;5.196;2023-04-25T01:09:09;100972.00;;;18.40
20733;BMP180;10527;52.124;5.196;2023-04-25T01:11:36;100975.00;;;18.40
20733;BMP180;10527;52.124;5.196;2023-04-25T01:14:03;100979.00;;;18.40
20733;BMP180;10527;52.124;5.196;2023-04-25T01:16:32;100976.00;;;18.30
20733;BMP180;10527;52.124;5.196;2023-04-25T01:19:00;100978.00;;;18.30
20733;BMP180;10527;52.124;5.196;2023-04-25T01:21:27;100966.00;;;18.30
20733;BMP180;10527;52.124;5.196;2023-04-25T01:23:57;100973.00;;;18.20
20733;BMP180;10527;52.124;5.196;2023-04-25T01:26:24;100979.00;;;18.20
20733;BMP180;10527;52.124;5.196;2023-04-25T01:28:52;100982.00;;;18.20
20733;BMP180;10527;52.124;5.196;2023-04-25T01:31:21;100978.00;;;18.20
20733;BMP180;10527;52.124;5.196;2023-04-25T01:33:48;100985.00;;;18.10
20733;BMP180;10527;52.124;5.196;2023-04-25T01:36:16;100983.00;;;18.10
20733;BMP180;10527;52.124;5.196;2023-04-25T01:38:43;100985.00;;;18.10
20733;BMP180;10527;52.124;5.196;2023-04-25T01:41:10;100985.00;;;18.10
20733;BMP180;10527;52.124;5.196;2023-04-25T01:43:37;100990.00;;;18.10
20733;BMP180;10527;52.124;5.196;2023-04-25T01:46:04;100988.00;;;18.10
20733;BMP180;10527;52.124;5.196;2023-04-25T01:48:32;100991.00;;;18.10
20733;BMP180;10527;52.124;5.196;2023-04-25T01:50:59;100992.00;;;18.10
20733;BMP180;10527;52.124;5.196;2023-04-25T01:53:26;100996.00;;;18.00
20733;BMP180;10527;52.124;5.196;2023-04-25T01:55:53;100995.00;;;18.00
20733;BMP180;10527;52.124;5.196;2023-04-25T01:58:20;101005.00;;;18.00
20733;BMP180;10527;52.124;5.196;2023-04-25T02:00:46;101005.00;;;18.00
20733;BMP180;10527;52.124;5.196;2023-04-25T02:03:13;101003.00;;;18.00
20733;BMP180;10527;52.124;5.196;2023-04-25T02:05:43;101001.00;;;18.00
20733;BMP180;10527;52.124;5.196;2023-04-25T02:08:10;100999.00;;;18.00
20733;BMP180;10527;52.124;5.196;2023-04-25T02:10:37;101004.00;;;18.00
20733;BMP180;10527;52.124;5.196;2023-04-25T02:13:04;101009.00;;;18.00
20733;BMP180;10527;52.124;5.196;2023-04-25T02:15:31;101015.00;;;18.00
20733;BMP180;10527;52.124;5.196;2023-04-25T02:17:58;101006.00;;;18.00
20733;BMP180;10527;52.124;5.196;2023-04-25T02:20:28;101017.00;;;18.00
20733;BMP180;10527;52.124;5.196;2023-04-25T02:22:56;101010.00;;;18.00
20733;BMP180;10527;52.124;5.196;2023-04-25T02:25:23;101015.00;;;18.00
20733;BMP180;10527;52.124;5.196;2023-04-25T02:27:50;101010.00;;;18.00
20733;BMP180;10527;52.124;5.196;2023-04-25T02:30:18;101007.00;;;17.90
20733;BMP180;10527;52.124;5.196;2023-04-25T02:32:45;101013.00;;;17.90
20733;BMP180;10527;52.124;5.196;2023-04-25T02:35:12;101017.00;;;17.90
20733;BMP180;10527;52.124;5.196;2023-04-25T02:37:40;101011.00;;;17.90
20733;BMP180;10527;52.124;5.196;2023-04-25T02:40:07;101009.00;;;17.90
20733;BMP180;10527;52.124;5.196;2023-04-25T02:42:35;101013.00;;;17.80
20733;BMP180;10527;52.124;5.196;2023-04-25T02:45:03;101011.00;;;17.80
20733;BMP180;10527;52.124;5.196;2023-04-25T02:47:30;101010.00;;;17.80
20733;BMP180;10527;52.124;5.196;2023-04-25T02:49:58;101019.00;;;17.90
20733;BMP180;10527;52.124;5.196;2023-04-25T02:52:24;101010.00;;;17.80
20733;BMP180;10527;52.124;5.196;2023-04-25T02:54:52;101012.00;;;17.80
20733;BMP180;10527;52.124;5.196;2023-04-25T02:57:18;101014.00;;;17.80
20733;BMP180;10527;52.124;5.196;2023-04-25T02:59:45;101012.00;;;17.80
20733;BMP180;10527;52.124;5.196;2023-04-25T03:02:12;101018.00;;;17.80
20733;BMP180;10527;52.124;5.196;2023-04-25T03:04:39;101021.00;;;17.80
20733;BMP180;10527;52.124;5.196;2023-04-25T03:07:06;101025.00;;;17.80
20733;BMP180;10527;52.124;5.196;2023-04-25T03:09:33;101016.00;;;17.80
20733;BMP180;10527;52.124;5.196;2023-04-25T03:12:00;101020.00;;;17.80
20733;BMP180;10527;52.124;5.196;2023-04-25T03:14:28;101020.00;;;17.80
20733;BMP180;10527;52.124;5.196;2023-04-25T03:16:54;101029.00;;;17.80
20733;BMP180;10527;52.124;5.196;2023-04-25T03:19:23;101036.00;;;17.80
20733;BMP180;10527;52.124;5.196;2023-04-25T03:21:49;101037.00;;;17.80
20733;BMP180;10527;52.124;5.196;2023-04-25T03:24:16;101047.00;;;17.80
20733;BMP180;10527;52.124;5.196;2023-04-25T03:26:43;101051.00;;;17.80
20733;BMP180;10527;52.124;5.196;2023-04-25T03:29:10;101058.00;;;17.70
20733;BMP180;10527;52.124;5.196;2023-04-25T03:31:36;101040.00;;;17.70
20733;BMP180;10527;52.124;5.196;2023-04-25T03:34:03;101038.00;;;17.60
20733;BMP180;10527;52.124;5.196;2023-04-25T03:36:30;101033.00;;;17.60
20733;BMP180;10527;52.124;5.196;2023-04-25T03:38:57;101033.00;;;17.60
20733;BMP180;10527;52.124;5.196;2023-04-25T03:41:24;101035.00;;;17.50
20733;BMP180;10527;52.124;5.196;2023-04-25T03:43:51;101031.00;;;17.50
20733;BMP180;10527;52.124;5.196;2023-04-25T03:46:18;101036.00;;;17.50
20733;BMP180;10527;52.124;5.196;2023-04-25T03:48:45;101039.00;;;17.50
20733;BMP180;10527;52.124;5.196;2023-04-25T03:51:12;101039.00;;;17.50
20733;BMP180;10527;52.124;5.196;2023-04-25T03:53:39;101041.00;;;17.50
20733;BMP180;10527;52.124;5.196;2023-04-25T03:56:06;101045.00;;;17.50
20733;BMP180;10527;52.124;5.196;2023-04-25T03:58:33;101040.00;;;17.50
20733;BMP180;10527;52.124;5.196;2023-04-25T04:01:00;101050.00;;;17.50
20733;BMP180;10527;52.124;5.196;2023-04-25T04:03:29;101059.00;;;17.60
20733;BMP180;10527;52.124;5.196;2023-04-25T04:05:56;101061.00;;;17.60
20733;BMP180;10527;52.124;5.196;2023-04-25T04:08:23;101063.00;;;17.60
20733;BMP180;10527;52.124;5.196;2023-04-25T04:10:50;101064.00;;;17.60
20733;BMP180;10527;52.124;5.196;2023-04-25T04:13:16;101069.00;;;17.60
20733;BMP180;10527;52.124;5.196;2023-04-25T04:15:43;101071.00;;;17.60
20733;BMP180;10527;52.124;5.196;2023-04-25T04:18:10;101076.00;;;17.50
20733;BMP180;10527;52.124;5.196;2023-04-25T04:20:37;101076.00;;;17.50
20733;BMP180;10527;52.124;5.196;2023-04-25T04:23:04;101075.00;;;17.50
20733;BMP180;10527;52.124;5.196;2023-04-25T04:25:31;101084.00;;;17.40
20733;BMP180;10527;52.124;5.196;2023-04-25T04:27:58;101084.00;;;17.40
20733;BMP180;10527;52.124;5.196;2023-04-25T04:30:25;101084.00;;;17.30
20733;BMP180;10527;52.124;5.196;2023-04-25T04:32:52;101081.00;;;17.30
20733;BMP180;10527;52.124;5.196;2023-04-25T04:35:19;101080.00;;;17.30
20733;BMP180;10527;52.124;5.196;2023-04-25T04:37:45;101087.00;;;17.30
20733;BMP180;10527;52.124;5.196;2023-04-25T04:40:14;101091.00;;;17.30
20733;BMP180;10527;52.124;5.196;2023-04-25T04:42:44;101091.00;;;17.30
20733;BMP180;10527;52.124;5.196;2023-04-25T04:45:15;101091.00;;;17.30
20733;BMP180;10527;52.124;5.196;2023-04-25T04:47:42;101102.00;;;17.30
20733;BMP180;10527;52.124;5.196;2023-04-25T04:50:10;101103.00;;;17.40
20733;BMP180;10527;52.124;5.196;2023-04-25T04:52:39;101105.00;;;17.40
20733;BMP180;10527;52.124;5.196;2023-04-25T04:55:06;101108.00;;;17.40
20733;BMP180;10527;52.124;5.196;2023-04-25T04:57:35;101111.00;;;17.40
20733;BMP180;10527;52.124;5.196;2023-04-25T05:00:02;101110.00;;;17.40
20733;BMP180;10527;52.124;5.196;2023-04-25T05:02:34;101122.00;;;17.40
20733;BMP180;10527;52.124;5.196;2023-04-25T05:05:02;101127.00;;;17.40
20733;BMP180;10527;52.124;5.196;2023-04-25T05:07:29;101126.00;;;17.30
20733;BMP180;10527;52.124;5.196;2023-04-25T05:09:56;101122.00;;;17.30
20733;BMP180;10527;52.124;5.196;2023-04-25T05:12:22;101133.00;;;17.30
20733;BMP180;10527;52.124;5.196;2023-04-25T05:14:49;101123.00;;;17.30
20733;BMP180;10527;52.124;5.196;2023-04-25T05:17:16;101126.00;;;17.30
20733;BMP180;10527;52.124;5.196;2023-04-25T05:19:43;101133.00;;;17.40
20733;BMP180;10527;52.124;5.196;2023-04-25T05:22:09;101132.00;;;17.40
20733;BMP180;10527;52.124;5.196;2023-04-25T05:24:37;101131.00;;;17.40
20733;BMP180;10527;52.124;5.196;2023-04-25T05:27:04;101134.00;;;17.40
20733;BMP180;10527;52.124;5.196;2023-04-25T05:29:32;101137.00;;;17.30
20733;BMP180;10527;52.124;5.196;2023-04-25T05:31:58;101139.00;;;17.30
20733;BMP180;10527;52.124;5.196;2023-04-25T05:34:25;101147.00;;;17.30
20733;BMP180;10527;52.124;5.196;2023-04-25T05:36:52;101141.00;;;17.30
20733;BMP180;10527;52.124;5.196;2023-04-25T05:39:19;101149.00;;;17.30
20733;BMP180;10527;52.124;5.196;2023-04-25T05:41:46;101151.00;;;17.30
20733;BMP180;10527;52.124;5.196;2023-04-25T05:44:13;101142.00;;;17.40
20733;BMP180;10527;52.124;5.196;2023-04-25T05:46:40;101152.00;;;17.40
20733;BMP180;10527;52.124;5.196;2023-04-25T05:49:06;101150.00;;;17.40
20733;BMP180;10527;52.124;5.196;2023-04-25T05:51:33;101157.00;;;17.40
20733;BMP180;10527;52.124;5.196;2023-04-25T05:54:00;101167.00;;;17.40
20733;BMP180;10527;52.124;5.196;2023-04-25T05:56:27;101169.00;;;17.50
20733;BMP180;10527;52.124;5.196;2023-04-25T05:58:53;101169.00;;;17.50
20733;BMP180;10527;52.124;5.196;2023-04-25T06:01:22;101177.00;;;17.50
20733;BMP180;10527;52.124;5.196;2023-04-25T06:03:49;101174.00;;;17.60
20733;BMP180;10527;52.124;5.196;2023-04-25T06:06:18;101177.00;;;17.60
20733;BMP180;10527;52.124;5.196;2023-04-25T06:08:45;101180.00;;;17.60
20733;BMP180;10527;52.124;5.196;2023-04-25T06:11:12;101193.00;;;17.70
20733;BMP180;10527;52.124;5.196;2023-04-25T06:13:39;101190.00;;;17.70
20733;BMP180;10527;52.124;5.196;2023-04-25T06:16:06;101194.00;;;17.70
20733;BMP180;10527;52.124;5.196;2023-04-25T06:18:34;101191.00;;;17.80
20733;BMP180;10527;52.124;5.196;2023-04-25T06:21:01;101189.00;;;17.80
20733;BMP180;10527;52.124;5.196;2023-04-25T06:23:28;101189.00;;;17.80
20733;BMP180;10527;52.124;5.196;2023-04-25T06:25:54;101193.00;;;17.80
20733;BMP180;10527;52.124;5.196;2023-04-25T06:28:21;101201.00;;;17.80
20733;BMP180;10527;52.124;5.196;2023-04-25T06:30:50;101204.00;;;17.80
20733;BMP180;10527;52.124;5.196;2023-04-25T06:33:17;101201.00;;;17.80
20733;BMP180;10527;52.124;5.196;2023-04-25T06:35:44;101211.00;;;17.80
20733;BMP180;10527;52.124;5.196;2023-04-25T06:38:11;101207.00;;;17.80
20733;BMP180;10527;52.124;5.196;2023-04-25T06:40:38;101204.00;;;17.80
20733;BMP180;10527;52.124;5.196;2023-04-25T06:43:04;101211.00;;;17.80
20733;BMP180;10527;52.124;5.196;2023-04-25T06:45:31;101219.00;;;17.80
20733;BMP180;10527;52.124;5.196;2023-04-25T06:47:58;101228.00;;;17.80
20733;BMP180;10527;52.124;5.196;2023-04-25T06:50:25;101223.00;;;17.80
20733;BMP180;10527;52.124;5.196;2023-04-25T06:52:52;101222.00;;;17.80
20733;BMP180;10527;52.124;5.196;2023-04-25T06:55:18;101244.00;;;17.70
20733;BMP180;10527;52.124;5.196;2023-04-25T06:57:46;101230.00;;;17.80
20733;BMP180;10527;52.124;5.196;2023-04-25T07:00:13;101229.00;;;17.80
20733;BMP180;10527;52.124;5.196;2023-04-25T07:02:40;101231.00;;;17.80
20733;BMP180;10527;52.124;5.196;2023-04-25T07:05:09;101236.00;;;17.80
20733;BMP180;10527;52.124;5.196;2023-04-25T07:07:36;101241.00;;;17.80
20733;BMP180;10527;52.124;5.196;2023-04-25T07:10:03;101230.00;;;17.90
20733;BMP180;10527;52.124;5.196;2023-04-25T07:12:30;101230.00;;;17.90
20733;BMP180;10527;52.124;5.196;2023-04-25T07:14:57;101235.00;;;18.00
20733;BMP180;10527;52.124;5.196;2023-04-25T07:17:23;101245.00;;;18.00
20733;BMP180;10527;52.124;5.196;2023-04-25T07:19:50;101248.00;;;18.10
20733;BMP180;10527;52.124;5.196;2023-04-25T07:22:17;101243.00;;;18.20
20733;BMP180;10527;52.124;5.196;2023-04-25T07:24:44;101251.00;;;18.30
20733;BMP180;10527;52.124;5.196;2023-04-25T07:27:15;101252.00;;;18.40
20733;BMP180;10527;52.124;5.196;2023-04-25T07:29:42;101259.00;;;18.50
20733;BMP180;10527;52.124;5.196;2023-04-25T07:32:08;101259.00;;;18.50
20733;BMP180;10527;52.124;5.196;2023-04-25T07:34:36;101256.00;;;18.50
20733;BMP180;10527;52.124;5.196;2023-04-25T07:37:05;101266.00;;;18.50
20733;BMP180;10527;52.124;5.196;2023-04-25T07:39:32;101265.00;;;18.50
20733;BMP180;10527;52.124;5.196;2023-04-25T07:41:59;101270.00;;;18.50
20733;BMP180;10527;52.124;5.196;2023-04-25T07:44:27;101276.00;;;18.50
20733;BMP180;10527;52.124;5.196;2023-04-25T07:46:54;101273.00;;;18.50
20733;BMP180;10527;52.124;5.196;2023-04-25T07:49:20;101271.00;;;18.60
20733;BMP180;10527;52.124;5.196;2023-04-25T07:51:47;101273.00;;;18.60
20733;BMP180;10527;52.124;5.196;2023-04-25T07:54:15;101282.00;;;18.60
20733;BMP180;10527;52.124;5.196;2023-04-25T07:56:44;101274.00;;;18.60
20733;BMP180;10527;52.124;5.196;2023-04-25T07:59:18;101283.00;;;18.60
20733;BMP180;10527;52.124;5.196;2023-04-25T08:01:46;101291.00;;;18.60
20733;BMP180;10527;52.124;5.196;2023-04-25T08:04:13;101288.00;;;18.60
20733;BMP180;10527;52.124;5.196;2023-04-25T08:06:42;101284.00;;;18.70
20733;BMP180;10527;52.124;5.196;2023-04-25T08:09:09;101288.00;;;18.70
20733;BMP180;10527;52.124;5.196;2023-04-25T08:11:36;101296.00;;;18.90
20733;BMP180;10527;52.124;5.196;2023-04-25T08:14:04;101306.00;;;19.10
20733;BMP180;10527;52.124;5.196;2023-04-25T08:16:32;101305.00;;;19.40
20733;BMP180;10527;52.124;5.196;2023-04-25T08:19:00;101311.00;;;19.70
20733;BMP180;10527;52.124;5.196;2023-04-25T08:21:27;101316.00;;;20.00
20733;BMP180;10527;52.124;5.196;2023-04-25T08:23:54;101316.00;;;20.10
20733;BMP180;10527;52.124;5.196;2023-04-25T08:26:21;101326.00;;;20.20
20733;BMP180;10527;52.124;5.196;2023-04-25T08:28:47;101328.00;;;20.20
20733;BMP180;10527;52.124;5.196;2023-04-25T08:31:17;101339.00;;;20.10
20733;BMP180;10527;52.124;5.196;2023-04-25T08:33:44;101340.00;;;20.00
20733;BMP180;10527;52.124;5.196;2023-04-25T08:36:11;101338.00;;;19.80
20733;BMP180;10527;52.124;5.196;2023-04-25T08:38:40;101333.00;;;19.70
20733;BMP180;10527;52.124;5.196;2023-04-25T08:41:07;101339.00;;;19.50
20733;BMP180;10527;52.124;5.196;2023-04-25T08:43:34;101336.00;;;19.40
20733;BMP180;10527;52.124;5.196;2023-04-25T08:46:02;101341.00;;;19.30
20733;BMP180;10527;52.124;5.196;2023-04-25T08:48:32;101347.00;;;19.30
20733;BMP180;10527;52.124;5.196;2023-04-25T08:51:02;101349.00;;;19.20
20733;BMP180;10527;52.124;5.196;2023-04-25T08:53:32;101365.00;;;19.30
20733;BMP180;10527;52.124;5.196;2023-04-25T08:56:02;101348.00;;;19.40
20733;BMP180;10527;52.124;5.196;2023-04-25T08:58:30;101365.00;;;19.50
20733;BMP180;10527;52.124;5.196;2023-04-25T09:00:57;101364.00;;;19.70
20733;BMP180;10527;52.124;5.196;2023-04-25T09:03:23;101369.00;;;19.90
20733;BMP180;10527;52.124;5.196;2023-04-25T09:05:51;101373.00;;;20.10
20733;BMP180;10527;52.124;5.196;2023-04-25T09:08:19;101368.00;;;20.30
20733;BMP180;10527;52.124;5.196;2023-04-25T09:10:45;101376.00;;;20.50
20733;BMP180;10527;52.124;5.196;2023-04-25T09:13:24;101385.00;;;20.70
20733;BMP180;10527;52.124;5.196;2023-04-25T09:15:57;101373.00;;;20.90
20733;BMP180;10527;52.124;5.196;2023-04-25T09:18:33;101396.00;;;21.10
20733;BMP180;10527;52.124;5.196;2023-04-25T09:21:11;101396.00;;;21.20
20733;BMP180;10527;52.124;5.196;2023-04-25T09:23:47;101399.00;;;21.20
20733;BMP180;10527;52.124;5.196;2023-04-25T09:26:16;101394.00;;;21.30
20733;BMP180;10527;52.124;5.196;2023-04-25T09:28:45;101400.00;;;21.40
20733;BMP180;10527;52.124;5.196;2023-04-25T09:31:24;101393.00;;;21.40
20733;BMP180;10527;52.124;5.196;2023-04-25T09:33:59;101409.00;;;21.30
20733;BMP180;10527;52.124;5.196;2023-04-25T09:36:30;101412.00;;;21.20
20733;BMP180;10527;52.124;5.196;2023-04-25T09:38:59;101421.00;;;21.10
20733;BMP180;10527;52.124;5.196;2023-04-25T09:41:27;101424.00;;;21.00
20733;BMP180;10527;52.124;5.196;2023-04-25T09:43:57;101425.00;;;20.80
20733;BMP180;10527;52.124;5.196;2023-04-25T09:46:35;101427.00;;;20.70
20733;BMP180;10527;52.124;5.196;2023-04-25T09:49:08;101427.00;;;20.60
20733;BMP180;10527;52.124;5.196;2023-04-25T09:51:35;101429.00;;;20.50
20733;BMP180;10527;52.124;5.196;2023-04-25T09:54:02;101445.00;;;20.50
20733;BMP180;10527;52.124;5.196;2023-04-25T09:56:35;101439.00;;;20.50
20733;BMP180;10527;52.124;5.196;2023-04-25T09:59:05;101450.00;;;20.40
20733;BMP180;10527;52.124;5.196;2023-04-25T10:01:33;101446.00;;;20.40
20733;BMP180;10527;52.124;5.196;2023-04-25T10:04:03;101451.00;;;20.30
20733;BMP180;10527;52.124;5.196;2023-04-25T10:06:34;101450.00;;;20.30
20733;BMP180;10527;52.124;5.196;2023-04-25T10:09:02;101456.00;;;20.30
20733;BMP180;10527;52.124;5.196;2023-04-25T10:11:31;101457.00;;;20.40
20733;BMP180;10527;52.124;5.196;2023-04-25T10:14:00;101460.00;;;20.40
20733;BMP180;10527;52.124;5.196;2023-04-25T10:16:28;101448.00;;;20.30
20733;BMP180;10527;52.124;5.196;2023-04-25T10:18:56;101457.00;;;20.40
20733;BMP180;10527;52.124;5.196;2023-04-25T10:21:26;101450.00;;;20.40
20733;BMP180;10527;52.124;5.196;2023-04-25T10:23:54;101452.00;;;20.40
20733;BMP180;10527;52.124;5.196;2023-04-25T10:26:23;101445.00;;;20.50
20733;BMP180;10527;52.124;5.196;2023-04-25T10:28:55;101455.00;;;20.60
20733;BMP180;10527;52.124;5.196;2023-04-25T10:31:23;101450.00;;;20.60
20733;BMP180;10527;52.124;5.196;2023-04-25T10:33:50;101457.00;;;20.70
20733;BMP180;10527;52.124;5.196;2023-04-25T10:36:20;101459.00;;;20.80
20733;BMP180;10527;52.124;5.196;2023-04-25T10:38:51;101456.00;;;20.80
20733;BMP180;10527;52.124;5.196;2023-04-25T10:41:19;101451.00;;;20.80
20733;BMP180;10527;52.124;5.196;2023-04-25T10:43:48;101458.00;;;20.80
20733;BMP180;10527;52.124;5.196;2023-04-25T10:46:33;101461.00;;;20.90
20733;BMP180;10527;52.124;5.196;2023-04-25T10:49:03;101457.00;;;20.90
20733;BMP180;10527;52.124;5.196;2023-04-25T10:51:34;101459.00;;;20.90
20733;BMP180;10527;52.124;5.196;2023-04-25T10:54:24;101460.00;;;20.90
20733;BMP180;10527;52.124;5.196;2023-04-25T10:56:52;101456.00;;;21.00
20733;BMP180;10527;52.124;5.196;2023-04-25T10:59:24;101472.00;;;21.10
20733;BMP180;10527;52.124;5.196;2023-04-25T11:01:53;101481.00;;;21.10
20733;BMP180;10527;52.124;5.196;2023-04-25T11:04:25;101483.00;;;21.10
20733;BMP180;10527;52.124;5.196;2023-04-25T11:09:35;101487.00;;;20.90
20733;BMP180;10527;52.124;5.196;2023-04-25T11:12:09;101494.00;;;20.80
20733;BMP180;10527;52.124;5.196;2023-04-25T11:15:00;101494.00;;;20.60
20733;BMP180;10527;52.124;5.196;2023-04-25T11:17:28;101501.00;;;20.50
20733;BMP180;10527;52.124;5.196;2023-04-25T11:19:55;101505.00;;;20.30
20733;BMP180;10527;52.124;5.196;2023-04-25T11:22:23;101493.00;;;20.20
20733;BMP180;10527;52.124;5.196;2023-04-25T11:24:50;101486.00;;;20.20
20733;BMP180;10527;52.124;5.196;2023-04-25T11:27:18;101496.00;;;20.10
20733;BMP180;10527;52.124;5.196;2023-04-25T11:29:45;101496.00;;;20.10
20733;BMP180;10527;52.124;5.196;2023-04-25T11:32:17;101503.00;;;20.20
20733;BMP180;10527;52.124;5.196;2023-04-25T11:34:47;101503.00;;;20.20
20733;BMP180;10527;52.124;5.196;2023-04-25T11:37:15;101506.00;;;20.20
20733;BMP180;10527;52.124;5.196;2023-04-25T11:39:45;101505.00;;;20.30
20733;BMP180;10527;52.124;5.196;2023-04-25T11:42:15;101494.00;;;20.30
20733;BMP180;10527;52.124;5.196;2023-04-25T11:44:42;101499.00;;;20.40
20733;BMP180;10527;52.124;5.196;2023-04-25T11:47:09;101521.00;;;20.60
20733;BMP180;10527;52.124;5.196;2023-04-25T11:49:36;101533.00;;;20.50
20733;BMP180;10527;52.124;5.196;2023-04-25T11:52:06;101538.00;;;20.40
20733;BMP180;10527;52.124;5.196;2023-04-25T11:54:37;101531.00;;;20.30
20733;BMP180;10527;52.124;5.196;2023-04-25T11:57:04;101532.00;;;20.20
20733;BMP180;10527;52.124;5.196;2023-04-25T11:59:31;101535.00;;;20.10
20733;BMP180;10527;52.124;5.196;2023-04-25T12:01:58;101528.00;;;20.00
20733;BMP180;10527;52.124;5.196;2023-04-25T12:04:25;101543.00;;;19.90
20733;BMP180;10527;52.124;5.196;2023-04-25T12:06:54;101540.00;;;19.80
20733;BMP180;10527;52.124;5.196;2023-04-25T12:09:33;101537.00;;;19.70
20733;BMP180;10527;52.124;5.196;2023-04-25T12:12:01;101541.00;;;19.60
20733;BMP180;10527;52.124;5.196;2023-04-25T12:14:35;101537.00;;;19.60
20733;BMP180;10527;52.124;5.196;2023-04-25T12:17:04;101542.00;;;19.70
20733;BMP180;10527;52.124;5.196;2023-04-25T12:19:38;101539.00;;;19.70
20733;BMP180;10527;52.124;5.196;2023-04-25T12:22:23;101540.00;;;19.70
20733;BMP180;10527;52.124;5.196;2023-04-25T12:24:50;101534.00;;;19.80
20733;BMP180;10527;52.124;5.196;2023-04-25T12:27:19;101541.00;;;19.80
20733;BMP180;10527;52.124;5.196;2023-04-25T12:30:12;101539.00;;;19.80
20733;BMP180;10527;52.124;5.196;2023-04-25T12:32:40;101536.00;;;19.90
20733;BMP180;10527;52.124;5.196;2023-04-25T12:35:07;101534.00;;;20.00
20733;BMP180;10527;52.124;5.196;2023-04-25T12:37:37;101544.00;;;20.10
20733;BMP180;10527;52.124;5.196;2023-04-25T12:40:04;101529.00;;;20.20
20733;BMP180;10527;52.124;5.196;2023-04-25T12:42:33;101537.00;;;20.30
20733;BMP180;10527;52.124;5.196;2023-04-25T12:45:01;101524.00;;;20.40
20733;BMP180;10527;52.124;5.196;2023-04-25T12:47:27;101525.00;;;20.50
20733;BMP180;10527;52.124;5.196;2023-04-25T12:49:54;101529.00;;;20.70
20733;BMP180;10527;52.124;5.196;2023-04-25T12:52:21;101526.00;;;20.80
20733;BMP180;10527;52.124;5.196;2023-04-25T12:54:48;101529.00;;;20.90
20733;BMP180;10527;52.124;5.196;2023-04-25T12:57:15;101538.00;;;21.00
20733;BMP180;10527;52.124;5.196;2023-04-25T12:59:42;101554.00;;;21.00
20733;BMP180;10527;52.124;5.196;2023-04-25T13:02:09;101530.00;;;20.90
20733;BMP180;10527;52.124;5.196;2023-04-25T13:04:35;101541.00;;;21.00
20733;BMP180;10527;52.124;5.196;2023-04-25T13:07:03;101540.00;;;21.00
20733;BMP180;10527;52.124;5.196;2023-04-25T13:09:30;101530.00;;;21.00
20733;BMP180;10527;52.124;5.196;2023-04-25T13:11:56;101542.00;;;21.10
20733;BMP180;10527;52.124;5.196;2023-04-25T13:14:26;101545.00;;;21.20
20733;BMP180;10527;52.124;5.196;2023-04-25T13:16:53;101533.00;;;21.20
20733;BMP180;10527;52.124;5.196;2023-04-25T13:19:21;101534.00;;;21.20
20733;BMP180;10527;52.124;5.196;2023-04-25T13:21:47;101542.00;;;21.30
20733;BMP180;10527;52.124;5.196;2023-04-25T13:24:14;101541.00;;;21.40
20733;BMP180;10527;52.124;5.196;2023-04-25T13:26:42;101537.00;;;21.50
20733;BMP180;10527;52.124;5.196;2023-04-25T13:29:08;101531.00;;;21.50
20733;BMP180;10527;52.124;5.196;2023-04-25T13:31:35;101526.00;;;21.60
20733;BMP180;10527;52.124;5.196;2023-04-25T13:34:02;101533.00;;;21.70
20733;BMP180;10527;52.124;5.196;2023-04-25T13:36:30;101549.00;;;21.80
20733;BMP180;10527;52.124;5.196;2023-04-25T13:38:58;101538.00;;;21.80
20733;BMP180;10527;52.124;5.196;2023-04-25T13:41:25;101548.00;;;21.80
20733;BMP180;10527;52.124;5.196;2023-04-25T13:43:52;101545.00;;;21.90
20733;BMP180;10527;52.124;5.196;2023-04-25T13:46:20;101540.00;;;22.00
20733;BMP180;10527;52.124;5.196;2023-04-25T13:49:06;101555.00;;;22.00
20733;BMP180;10527;52.124;5.196;2023-04-25T13:51:40;101553.00;;;22.00
20733;BMP180;10527;52.124;5.196;2023-04-25T13:54:07;101547.00;;;22.10
20733;BMP180;10527;52.124;5.196;2023-04-25T13:56:34;101548.00;;;22.20
20733;BMP180;10527;52.124;5.196;2023-04-25T13:59:01;101546.00;;;22.20
20733;BMP180;10527;52.124;5.196;2023-04-25T14:01:28;101566.00;;;22.20
20733;BMP180;10527;52.124;5.196;2023-04-25T14:03:58;101554.00;;;22.30